sensor_id;sensor_type;location;lat;lon;timestamp;P1;durP1;ratioP1;P2;durP2;ratioP2
4839;SDS011;2434;48.486;7.964;2023-04-06T00:00:00;4.77;;;3.40;;
4839;SDS011;2434;48.486;7.964;2023-04-06T00:02:34;3.80;;;3.30;;
4839;SDS011;2434;48.486;7.964;2023-04-06T00:05:03;11.23;;;4.50;;
4839;SDS011;2434;48.486;7.964;2023-04-06T00:07:33;6.53;;;3.43;;
4839;SDS011;2434;48.486;7.964;2023-04-06T00:10:02;8.30;;;3.23;;
4839;SDS011;2434;48.486;7.964;2023-04-06T00:12:30;4.10;;;3.17;;
4839;SDS011;2434;48.486;7.964;2023-04-06T00:15:00;4.50;;;3.60;;
4839;SDS011;2434;48.486;7.964;2023-04-06T00:17:29;6.80;;;3.50;;
4839;SDS011;2434;48.486;7.964;2023-04-06T00:19:57;5.83;;;3.47;;
4839;SDS011;2434;48.486;7.964;2023-04-06T00:22:25;4.00;;;3.60;;
4839;SDS011;2434;48.486;7.964;2023-04-06T00:24:54;10.40;;;3.47;;
4839;SDS011;2434;48.486;7.964;2023-04-06T00:27:22;3.57;;;3.27;;
4839;SDS011;2434;48.486;7.964;2023-04-06T00:29:50;4.33;;;3.37;;
4839;SDS011;2434;48.486;7.964;2023-04-06T00:32:20;5.40;;;4.57;;
4839;SDS011;2434;48.486;7.964;2023-04-06T00:34:49;5.90;;;4.30;;
4839;SDS011;2434;48.486;7.964;2023-04-06T00:37:17;5.30;;;3.87;;
4839;SDS011;2434;48.486;7.964;2023-04-06T00:39:46;5.50;;;3.90;;
4839;SDS011;2434;48.486;7.964;2023-04-06T00:42:14;4.23;;;3.83;;
4839;SDS011;2434;48.486;7.964;2023-04-06T00:44:42;6.27;;;4.27;;
4839;SDS011;2434;48.486;7.964;2023-04-06T00:47:11;5.20;;;4.00;;
4839;SDS011;2434;48.486;7.964;2023-04-06T00:49:41;7.60;;;4.00;;
4839;SDS011;2434;48.486;7.964;2023-04-06T00:52:09;10.93;;;4.90;;
4839;SDS011;2434;48.486;7.964;2023-04-06T00:54:37;6.67;;;4.47;;
4839;SDS011;2434;48.486;7.964;2023-04-06T00:57:07;6.93;;;4.90;;
4839;SDS011;2434;48.486;7.964;2023-04-06T00:59:35;8.87;;;4.77;;
4839;SDS011;2434;48.486;7.964;2023-04-06T01:02:06;7.40;;;4.60;;
4839;SDS011;2434;48.486;7.964;2023-04-06T01:04:43;6.60;;;4.70;;
4839;SDS011;2434;48.486;7.964;2023-04-06T01:07:21;6.50;;;4.73;;
4839;SDS011;2434;48.486;7.964;2023-04-06T01:10:03;5.17;;;4.67;;
4839;SDS011;2434;48.486;7.964;2023-04-06T01:12:34;7.23;;;4.67;;
4839;SDS011;2434;48.486;7.964;2023-04-06T01:15:10;7.40;;;4.97;;
4839;SDS011;2434;48.486;7.964;2023-04-06T01:17:43;6.53;;;4.67;;
4839;SDS011;2434;48.486;7.964;2023-04-06T01:20:17;6.40;;;5.00;;
4839;SDS011;2434;48.486;7.964;2023-04-06T01:22:47;9.00;;;4.30;;
4839;SDS011;2434;48.486;7.964;2023-04-06T01:25:18;7.80;;;4.60;;
4839;SDS011;2434;48.486;7.964;2023-04-06T01:28:04;6.70;;;5.13;;
4839;SDS011;2434;48.486;7.964;2023-04-06T01:30:52;5.90;;;4.57;;
4839;SDS011;2434;48.486;7.964;2023-04-06T01:33:40;5.60;;;4.17;;
4839;SDS011;2434;48.486;7.964;2023-04-06T01:36:12;6.57;;;4.67;;
4839;SDS011;2434;48.486;7.964;2023-04-06T01:38:44;8.03;;;5.10;;
4839;SDS011;2434;48.486;7.964;2023-04-06T01:41:15;6.47;;;4.33;;
4839;SDS011;2434;48.486;7.964;2023-04-06T01:43:49;14.00;;;5.60;;
4839;SDS011;2434;48.486;7.964;2023-04-06T01:46:24;11.23;;;3.73;;
4839;SDS011;2434;48.486;7.964;2023-04-06T01:48:53;6.60;;;5.00;;
4839;SDS011;2434;48.486;7.964;2023-04-06T01:51:42;5.80;;;5.20;;
4839;SDS011;2434;48.486;7.964;2023-04-06T01:54:13;5.23;;;4.13;;
4839;SDS011;2434;48.486;7.964;2023-04-06T01:57:04;8.90;;;4.90;;
4839;SDS011;2434;48.486;7.964;2023-04-06T01:59:40;5.70;;;4.63;;
4839;SDS011;2434;48.486;7.964;2023-04-06T02:02:16;6.70;;;5.17;;
4839;SDS011;2434;48.486;7.964;2023-04-06T02:04:54;6.37;;;5.17;;
4839;SDS011;2434;48.486;7.964;2023-04-06T02:07:22;6.50;;;5.03;;
4839;SDS011;2434;48.486;7.964;2023-04-06T02:09:54;7.70;;;5.50;;
4839;SDS011;2434;48.486;7.964;2023-04-06T02:12:31;8.17;;;5.23;;
4839;SDS011;2434;48.486;7.964;2023-04-06T02:15:00;5.83;;;4.47;;
4839;SDS011;2434;48.486;7.964;2023-04-06T02:17:28;8.13;;;5.10;;
4839;SDS011;2434;48.486;7.964;2023-04-06T02:19:57;8.93;;;4.67;;
4839;SDS011;2434;48.486;7.964;2023-04-06T02:22:25;8.50;;;5.23;;
4839;SDS011;2434;48.486;7.964;2023-04-06T02:24:55;6.40;;;4.53;;
4839;SDS011;2434;48.486;7.964;2023-04-06T02:27:25;7.53;;;4.53;;
4839;SDS011;2434;48.486;7.964;2023-04-06T02:29:53;5.53;;;3.93;;
4839;SDS011;2434;48.486;7.964;2023-04-06T02:32:22;7.63;;;4.00;;
4839;SDS011;2434;48.486;7.964;2023-04-06T02:34:51;5.37;;;4.53;;
4839;SDS011;2434;48.486;7.964;2023-04-06T02:37:20;7.10;;;4.57;;
4839;SDS011;2434;48.486;7.964;2023-04-06T02:39:51;5.57;;;4.40;;
4839;SDS011;2434;48.486;7.964;2023-04-06T02:42:21;5.03;;;3.90;;
4839;SDS011;2434;48.486;7.964;2023-04-06T02:44:51;6.10;;;4.80;;
4839;SDS011;2434;48.486;7.964;2023-04-06T02:47:22;6.40;;;5.00;;
4839;SDS011;2434;48.486;7.964;2023-04-06T02:49:51;7.70;;;5.40;;
4839;SDS011;2434;48.486;7.964;2023-04-06T02:52:19;6.70;;;4.47;;
4839;SDS011;2434;48.486;7.964;2023-04-06T02:54:48;10.73;;;5.27;;
4839;SDS011;2434;48.486;7.964;2023-04-06T02:57:25;6.10;;;4.60;;
4839;SDS011;2434;48.486;7.964;2023-04-06T02:59:53;6.53;;;4.83;;
4839;SDS011;2434;48.486;7.964;2023-04-06T03:02:29;6.20;;;4.60;;
4839;SDS011;2434;48.486;7.964;2023-04-06T03:05:05;8.47;;;4.37;;
4839;SDS011;2434;48.486;7.964;2023-04-06T03:07:37;9.63;;;5.27;;
4839;SDS011;2434;48.486;7.964;2023-04-06T03:10:10;6.03;;;4.97;;
4839;SDS011;2434;48.486;7.964;2023-04-06T03:12:40;6.43;;;4.63;;
4839;SDS011;2434;48.486;7.964;2023-04-06T03:15:16;9.50;;;5.20;;
4839;SDS011;2434;48.486;7.964;2023-04-06T03:17:51;5.70;;;5.13;;
4839;SDS011;2434;48.486;7.964;2023-04-06T03:20:49;8.63;;;5.13;;
4839;SDS011;2434;48.486;7.964;2023-04-06T03:23:18;7.83;;;5.63;;
4839;SDS011;2434;48.486;7.964;2023-04-06T03:25:51;7.10;;;5.33;;
4839;SDS011;2434;48.486;7.964;2023-04-06T03:28:21;7.53;;;4.70;;
4839;SDS011;2434;48.486;7.964;2023-04-06T03:30:56;5.70;;;5.07;;
4839;SDS011;2434;48.486;7.964;2023-04-06T03:33:39;7.77;;;6.63;;
4839;SDS011;2434;48.486;7.964;2023-04-06T03:36:13;8.87;;;6.17;;
4839;SDS011;2434;48.486;7.964;2023-04-06T03:38:42;7.27;;;5.30;;
4839;SDS011;2434;48.486;7.964;2023-04-06T03:41:12;9.40;;;5.30;;
4839;SDS011;2434;48.486;7.964;2023-04-06T03:43:54;9.53;;;5.80;;
4839;SDS011;2434;48.486;7.964;2023-04-06T03:46:22;6.20;;;4.40;;
4839;SDS011;2434;48.486;7.964;2023-04-06T03:48:53;6.30;;;5.00;;
4839;SDS011;2434;48.486;7.964;2023-04-06T03:51:23;7.40;;;5.20;;
4839;SDS011;2434;48.486;7.964;2023-04-06T03:53:51;7.40;;;4.90;;
4839;SDS011;2434;48.486;7.964;2023-04-06T03:56:19;5.50;;;4.37;;
4839;SDS011;2434;48.486;7.964;2023-04-06T03:58:48;6.20;;;4.53;;
4839;SDS011;2434;48.486;7.964;2023-04-06T04:01:21;5.00;;;4.50;;
4839;SDS011;2434;48.486;7.964;2023-04-06T04:03:49;6.50;;;4.53;;
4839;SDS011;2434;48.486;7.964;2023-04-06T04:06:18;5.30;;;4.50;;
4839;SDS011;2434;48.486;7.964;2023-04-06T04:08:46;5.63;;;4.53;;
4839;SDS011;2434;48.486;7.964;2023-04-06T04:11:15;9.33;;;5.13;;
4839;SDS011;2434;48.486;7.964;2023-04-06T04:13:47;6.00;;;4.37;;
4839;SDS011;2434;48.486;7.964;2023-04-06T04:16:15;5.70;;;4.30;;
4839;SDS011;2434;48.486;7.964;2023-04-06T04:18:45;5.80;;;4.57;;
4839;SDS011;2434;48.486;7.964;2023-04-06T04:21:15;6.83;;;4.73;;
4839;SDS011;2434;48.486;7.964;2023-04-06T04:23:43;11.97;;;4.40;;
4839;SDS011;2434;48.486;7.964;2023-04-06T04:26:11;7.70;;;5.20;;
4839;SDS011;2434;48.486;7.964;2023-04-06T04:28:43;7.10;;;5.27;;
4839;SDS011;2434;48.486;7.964;2023-04-06T04:31:13;9.00;;;4.83;;
4839;SDS011;2434;48.486;7.964;2023-04-06T04:33:48;7.90;;;4.77;;
4839;SDS011;2434;48.486;7.964;2023-04-06T04:36:23;5.67;;;4.23;;
4839;SDS011;2434;48.486;7.964;2023-04-06T04:38:55;8.33;;;4.60;;
4839;SDS011;2434;48.486;7.964;2023-04-06T04:41:24;8.30;;;5.23;;
4839;SDS011;2434;48.486;7.964;2023-04-06T04:43:53;10.17;;;5.03;;
4839;SDS011;2434;48.486;7.964;2023-04-06T04:46:23;6.37;;;5.13;;
4839;SDS011;2434;48.486;7.964;2023-04-06T04:48:54;6.80;;;4.40;;
4839;SDS011;2434;48.486;7.964;2023-04-06T04:51:23;7.80;;;5.17;;
4839;SDS011;2434;48.486;7.964;2023-04-06T04:54:21;6.60;;;4.50;;
4839;SDS011;2434;48.486;7.964;2023-04-06T04:56:50;5.00;;;4.27;;
4839;SDS011;2434;48.486;7.964;2023-04-06T04:59:26;4.47;;;3.90;;
4839;SDS011;2434;48.486;7.964;2023-04-06T05:02:02;5.80;;;4.50;;
4839;SDS011;2434;48.486;7.964;2023-04-06T05:04:43;6.77;;;5.07;;
4839;SDS011;2434;48.486;7.964;2023-04-06T05:07:18;6.20;;;4.50;;
4839;SDS011;2434;48.486;7.964;2023-04-06T05:09:48;7.07;;;5.13;;
4839;SDS011;2434;48.486;7.964;2023-04-06T05:12:19;7.30;;;5.77;;
4839;SDS011;2434;48.486;7.964;2023-04-06T05:15:08;7.50;;;5.50;;
4839;SDS011;2434;48.486;7.964;2023-04-06T05:17:37;6.43;;;4.27;;
4839;SDS011;2434;48.486;7.964;2023-04-06T05:20:10;8.67;;;4.60;;
4839;SDS011;2434;48.486;7.964;2023-04-06T05:22:45;9.70;;;5.00;;
4839;SDS011;2434;48.486;7.964;2023-04-06T05:25:14;7.40;;;5.50;;
4839;SDS011;2434;48.486;7.964;2023-04-06T05:27:44;8.43;;;5.90;;
4839;SDS011;2434;48.486;7.964;2023-04-06T05:30:26;8.53;;;6.80;;
4839;SDS011;2434;48.486;7.964;2023-04-06T05:32:54;18.60;;;9.00;;
4839;SDS011;2434;48.486;7.964;2023-04-06T05:35:28;11.00;;;7.20;;
4839;SDS011;2434;48.486;7.964;2023-04-06T05:38:01;10.07;;;7.13;;
4839;SDS011;2434;48.486;7.964;2023-04-06T05:40:29;9.27;;;6.80;;
4839;SDS011;2434;48.486;7.964;2023-04-06T05:42:58;8.43;;;6.00;;
4839;SDS011;2434;48.486;7.964;2023-04-06T05:45:27;14.27;;;5.30;;
4839;SDS011;2434;48.486;7.964;2023-04-06T05:47:57;7.90;;;5.27;;
4839;SDS011;2434;48.486;7.964;2023-04-06T05:50:29;9.20;;;5.10;;
4839;SDS011;2434;48.486;7.964;2023-04-06T05:52:58;8.77;;;5.20;;
4839;SDS011;2434;48.486;7.964;2023-04-06T05:55:32;10.87;;;5.83;;
4839;SDS011;2434;48.486;7.964;2023-04-06T05:58:26;11.67;;;5.80;;
4839;SDS011;2434;48.486;7.964;2023-04-06T06:00:56;10.70;;;5.60;;
4839;SDS011;2434;48.486;7.964;2023-04-06T06:03:28;15.67;;;10.10;;
4839;SDS011;2434;48.486;7.964;2023-04-06T06:06:01;18.60;;;12.27;;
4839;SDS011;2434;48.486;7.964;2023-04-06T06:08:44;18.17;;;11.90;;
4839;SDS011;2434;48.486;7.964;2023-04-06T06:11:15;17.73;;;11.10;;
4839;SDS011;2434;48.486;7.964;2023-04-06T06:13:43;24.60;;;12.00;;
4839;SDS011;2434;48.486;7.964;2023-04-06T06:16:13;14.40;;;10.70;;
4839;SDS011;2434;48.486;7.964;2023-04-06T06:18:45;17.53;;;11.20;;
4839;SDS011;2434;48.486;7.964;2023-04-06T06:21:15;17.57;;;11.80;;
4839;SDS011;2434;48.486;7.964;2023-04-06T06:23:44;19.03;;;12.00;;
4839;SDS011;2434;48.486;7.964;2023-04-06T06:26:17;14.03;;;10.43;;
4839;SDS011;2434;48.486;7.964;2023-04-06T06:28:46;12.90;;;9.10;;
4839;SDS011;2434;48.486;7.964;2023-04-06T06:31:14;15.77;;;10.80;;
4839;SDS011;2434;48.486;7.964;2023-04-06T06:33:43;15.20;;;10.70;;
4839;SDS011;2434;48.486;7.964;2023-04-06T06:36:12;14.20;;;9.63;;
4839;SDS011;2434;48.486;7.964;2023-04-06T06:38:42;12.40;;;8.63;;
4839;SDS011;2434;48.486;7.964;2023-04-06T06:41:11;14.87;;;9.17;;
4839;SDS011;2434;48.486;7.964;2023-04-06T06:43:40;11.63;;;8.53;;
4839;SDS011;2434;48.486;7.964;2023-04-06T06:46:10;12.07;;;7.13;;
4839;SDS011;2434;48.486;7.964;2023-04-06T06:48:39;8.60;;;6.80;;
4839;SDS011;2434;48.486;7.964;2023-04-06T06:51:08;8.40;;;6.53;;
4839;SDS011;2434;48.486;7.964;2023-04-06T06:53:39;10.27;;;6.30;;
4839;SDS011;2434;48.486;7.964;2023-04-06T06:56:09;9.53;;;6.00;;
4839;SDS011;2434;48.486;7.964;2023-04-06T06:58:37;9.87;;;6.10;;
4839;SDS011;2434;48.486;7.964;2023-04-06T07:01:06;6.40;;;5.50;;
4839;SDS011;2434;48.486;7.964;2023-04-06T07:03:34;8.20;;;5.50;;
4839;SDS011;2434;48.486;7.964;2023-04-06T07:06:02;7.37;;;5.37;;
4839;SDS011;2434;48.486;7.964;2023-04-06T07:08:31;8.73;;;6.90;;
4839;SDS011;2434;48.486;7.964;2023-04-06T07:10:59;10.43;;;7.30;;
4839;SDS011;2434;48.486;7.964;2023-04-06T07:13:29;12.43;;;6.23;;
4839;SDS011;2434;48.486;7.964;2023-04-06T07:15:59;9.97;;;5.37;;
4839;SDS011;2434;48.486;7.964;2023-04-06T07:18:28;9.10;;;6.50;;
4839;SDS011;2434;48.486;7.964;2023-04-06T07:20:59;10.40;;;5.57;;
4839;SDS011;2434;48.486;7.964;2023-04-06T07:23:28;7.73;;;5.67;;
4839;SDS011;2434;48.486;7.964;2023-04-06T07:25:56;8.23;;;5.60;;
4839;SDS011;2434;48.486;7.964;2023-04-06T07:28:24;7.73;;;5.50;;
4839;SDS011;2434;48.486;7.964;2023-04-06T07:30:55;9.77;;;5.83;;
4839;SDS011;2434;48.486;7.964;2023-04-06T07:33:23;7.30;;;5.80;;
4839;SDS011;2434;48.486;7.964;2023-04-06T07:35:56;7.00;;;6.00;;
4839;SDS011;2434;48.486;7.964;2023-04-06T07:38:25;8.70;;;5.53;;
4839;SDS011;2434;48.486;7.964;2023-04-06T07:40:55;8.20;;;6.17;;
4839;SDS011;2434;48.486;7.964;2023-04-06T07:43:24;9.30;;;5.80;;
4839;SDS011;2434;48.486;7.964;2023-04-06T07:45:52;8.03;;;5.37;;
4839;SDS011;2434;48.486;7.964;2023-04-06T07:48:22;8.67;;;6.80;;
4839;SDS011;2434;48.486;7.964;2023-04-06T07:50:51;10.50;;;6.77;;
4839;SDS011;2434;48.486;7.964;2023-04-06T07:53:19;9.47;;;6.10;;
4839;SDS011;2434;48.486;7.964;2023-04-06T07:55:48;10.63;;;6.50;;
4839;SDS011;2434;48.486;7.964;2023-04-06T07:58:16;8.33;;;5.97;;
4839;SDS011;2434;48.486;7.964;2023-04-06T08:00:44;8.50;;;5.20;;
4839;SDS011;2434;48.486;7.964;2023-04-06T08:03:13;9.00;;;5.30;;
4839;SDS011;2434;48.486;7.964;2023-04-06T08:05:42;9.03;;;6.17;;
4839;SDS011;2434;48.486;7.964;2023-04-06T08:08:11;10.37;;;6.03;;
4839;SDS011;2434;48.486;7.964;2023-04-06T08:10:39;12.73;;;5.80;;
4839;SDS011;2434;48.486;7.964;2023-04-06T08:13:08;10.83;;;5.97;;
4839;SDS011;2434;48.486;7.964;2023-04-06T08:15:36;7.70;;;6.00;;
4839;SDS011;2434;48.486;7.964;2023-04-06T08:18:05;9.20;;;5.70;;
4839;SDS011;2434;48.486;7.964;2023-04-06T08:20:33;9.20;;;6.50;;
4839;SDS011;2434;48.486;7.964;2023-04-06T08:23:03;7.13;;;5.53;;
4839;SDS011;2434;48.486;7.964;2023-04-06T08:25:33;8.87;;;5.33;;
4839;SDS011;2434;48.486;7.964;2023-04-06T08:28:02;7.50;;;5.73;;
4839;SDS011;2434;48.486;7.964;2023-04-06T08:30:31;8.37;;;5.87;;
4839;SDS011;2434;48.486;7.964;2023-04-06T08:32:59;6.93;;;5.63;;
4839;SDS011;2434;48.486;7.964;2023-04-06T08:35:27;9.97;;;5.73;;
4839;SDS011;2434;48.486;7.964;2023-04-06T08:37:56;7.43;;;5.87;;
4839;SDS011;2434;48.486;7.964;2023-04-06T08:40:26;15.43;;;6.50;;
4839;SDS011;2434;48.486;7.964;2023-04-06T08:42:55;8.97;;;5.97;;
4839;SDS011;2434;48.486;7.964;2023-04-06T08:45:24;7.17;;;5.70;;
4839;SDS011;2434;48.486;7.964;2023-04-06T08:47:52;10.40;;;6.53;;
4839;SDS011;2434;48.486;7.964;2023-04-06T08:50:25;8.13;;;5.73;;
4839;SDS011;2434;48.486;7.964;2023-04-06T08:52:54;9.63;;;6.80;;
4839;SDS011;2434;48.486;7.964;2023-04-06T08:55:22;7.87;;;6.27;;
4839;SDS011;2434;48.486;7.964;2023-04-06T08:57:53;9.60;;;6.73;;
4839;SDS011;2434;48.486;7.964;2023-04-06T09:00:23;9.27;;;6.63;;
4839;SDS011;2434;48.486;7.964;2023-04-06T09:02:53;9.20;;;6.77;;
4839;SDS011;2434;48.486;7.964;2023-04-06T09:05:23;9.50;;;6.50;;
4839;SDS011;2434;48.486;7.964;2023-04-06T09:07:52;10.10;;;7.13;;
4839;SDS011;2434;48.486;7.964;2023-04-06T09:10:21;14.17;;;7.23;;
4839;SDS011;2434;48.486;7.964;2023-04-06T09:13:05;12.20;;;6.77;;
4839;SDS011;2434;48.486;7.964;2023-04-06T09:15:34;9.60;;;6.93;;
4839;SDS011;2434;48.486;7.964;2023-04-06T09:18:02;12.17;;;7.00;;
4839;SDS011;2434;48.486;7.964;2023-04-06T09:20:31;8.90;;;6.33;;
4839;SDS011;2434;48.486;7.964;2023-04-06T09:22:59;9.97;;;5.90;;
4839;SDS011;2434;48.486;7.964;2023-04-06T09:25:27;10.80;;;7.33;;
4839;SDS011;2434;48.486;7.964;2023-04-06T09:27:58;15.93;;;6.80;;
4839;SDS011;2434;48.486;7.964;2023-04-06T09:30:28;8.77;;;5.73;;
4839;SDS011;2434;48.486;7.964;2023-04-06T09:32:57;8.07;;;6.30;;
4839;SDS011;2434;48.486;7.964;2023-04-06T09:35:26;8.40;;;6.50;;
4839;SDS011;2434;48.486;7.964;2023-04-06T09:37:57;16.27;;;7.80;;
4839;SDS011;2434;48.486;7.964;2023-04-06T09:40:25;12.17;;;7.90;;
4839;SDS011;2434;48.486;7.964;2023-04-06T09:42:55;9.87;;;7.53;;
4839;SDS011;2434;48.486;7.964;2023-04-06T09:45:24;10.77;;;6.97;;
4839;SDS011;2434;48.486;7.964;2023-04-06T09:47:54;11.37;;;7.17;;
4839;SDS011;2434;48.486;7.964;2023-04-06T09:50:23;10.80;;;6.63;;
4839;SDS011;2434;48.486;7.964;2023-04-06T09:52:54;15.40;;;7.70;;
4839;SDS011;2434;48.486;7.964;2023-04-06T09:55:26;11.40;;;7.33;;
4839;SDS011;2434;48.486;7.964;2023-04-06T09:58:00;21.77;;;6.77;;
4839;SDS011;2434;48.486;7.964;2023-04-06T10:00:34;8.67;;;6.80;;
4839;SDS011;2434;48.486;7.964;2023-04-06T10:03:14;10.10;;;6.73;;
4839;SDS011;2434;48.486;7.964;2023-04-06T10:05:52;9.83;;;6.33;;
4839;SDS011;2434;48.486;7.964;2023-04-06T10:08:24;9.77;;;6.53;;
4839;SDS011;2434;48.486;7.964;2023-04-06T10:10:58;13.93;;;7.30;;
4839;SDS011;2434;48.486;7.964;2023-04-06T10:13:27;11.43;;;6.93;;
4839;SDS011;2434;48.486;7.964;2023-04-06T10:15:56;8.80;;;6.43;;
4839;SDS011;2434;48.486;7.964;2023-04-06T10:18:28;9.20;;;6.00;;
4839;SDS011;2434;48.486;7.964;2023-04-06T10:20:57;13.23;;;7.40;;
4839;SDS011;2434;48.486;7.964;2023-04-06T10:23:32;7.37;;;6.00;;
4839;SDS011;2434;48.486;7.964;2023-04-06T10:26:04;9.60;;;6.70;;
4839;SDS011;2434;48.486;7.964;2023-04-06T10:28:33;9.33;;;6.10;;
4839;SDS011;2434;48.486;7.964;2023-04-06T10:31:04;10.87;;;5.83;;
4839;SDS011;2434;48.486;7.964;2023-04-06T10:33:35;9.17;;;6.30;;
4839;SDS011;2434;48.486;7.964;2023-04-06T10:36:10;9.20;;;5.90;;
4839;SDS011;2434;48.486;7.964;2023-04-06T10:38:39;10.03;;;6.40;;
4839;SDS011;2434;48.486;7.964;2023-04-06T10:41:09;8.73;;;6.00;;
4839;SDS011;2434;48.486;7.964;2023-04-06T10:43:39;12.80;;;6.23;;
4839;SDS011;2434;48.486;7.964;2023-04-06T10:46:09;9.57;;;5.73;;
4839;SDS011;2434;48.486;7.964;2023-04-06T10:48:39;9.50;;;5.50;;
4839;SDS011;2434;48.486;7.964;2023-04-06T10:51:09;8.00;;;5.83;;
4839;SDS011;2434;48.486;7.964;2023-04-06T10:53:39;6.90;;;4.90;;
4839;SDS011;2434;48.486;7.964;2023-04-06T10:56:10;8.53;;;5.40;;
4839;SDS011;2434;48.486;7.964;2023-04-06T10:58:43;10.40;;;6.50;;
4839;SDS011;2434;48.486;7.964;2023-04-06T11:01:14;8.17;;;5.50;;
4839;SDS011;2434;48.486;7.964;2023-04-06T11:03:44;7.80;;;5.17;;
4839;SDS011;2434;48.486;7.964;2023-04-06T11:06:19;9.73;;;6.60;;
4839;SDS011;2434;48.486;7.964;2023-04-06T11:08:49;10.13;;;6.10;;
4839;SDS011;2434;48.486;7.964;2023-04-06T11:11:19;9.63;;;5.77;;
4839;SDS011;2434;48.486;7.964;2023-04-06T11:13:48;10.40;;;6.13;;
4839;SDS011;2434;48.486;7.964;2023-04-06T11:16:18;14.67;;;6.70;;
4839;SDS011;2434;48.486;7.964;2023-04-06T11:18:50;11.30;;;6.40;;
4839;SDS011;2434;48.486;7.964;2023-04-06T11:21:20;10.63;;;6.63;;
4839;SDS011;2434;48.486;7.964;2023-04-06T11:24:09;12.20;;;7.47;;
4839;SDS011;2434;48.486;7.964;2023-04-06T11:26:39;13.47;;;7.93;;
4839;SDS011;2434;48.486;7.964;2023-04-06T11:29:08;12.93;;;7.10;;
4839;SDS011;2434;48.486;7.964;2023-04-06T11:31:40;12.60;;;8.10;;
4839;SDS011;2434;48.486;7.964;2023-04-06T11:34:11;9.80;;;6.50;;
4839;SDS011;2434;48.486;7.964;2023-04-06T11:36:40;13.87;;;7.80;;
4839;SDS011;2434;48.486;7.964;2023-04-06T11:39:09;14.70;;;8.87;;
4839;SDS011;2434;48.486;7.964;2023-04-06T11:41:38;10.77;;;7.67;;
4839;SDS011;2434;48.486;7.964;2023-04-06T11:44:07;13.27;;;7.17;;
4839;SDS011;2434;48.486;7.964;2023-04-06T11:46:35;11.63;;;7.30;;
4839;SDS011;2434;48.486;7.964;2023-04-06T11:49:03;15.10;;;6.50;;
4839;SDS011;2434;48.486;7.964;2023-04-06T11:51:36;11.73;;;7.87;;
4839;SDS011;2434;48.486;7.964;2023-04-06T11:54:04;12.73;;;7.17;;
4839;SDS011;2434;48.486;7.964;2023-04-06T11:56:33;10.10;;;6.50;;
4839;SDS011;2434;48.486;7.964;2023-04-06T11:59:01;11.03;;;7.80;;
4839;SDS011;2434;48.486;7.964;2023-04-06T12:01:29;9.93;;;6.60;;
4839;SDS011;2434;48.486;7.964;2023-04-06T12:04:04;10.90;;;7.47;;
4839;SDS011;2434;48.486;7.964;2023-04-06T12:06:32;8.80;;;6.37;;
4839;SDS011;2434;48.486;7.964;2023-04-06T12:09:03;9.90;;;6.67;;
4839;SDS011;2434;48.486;7.964;2023-04-06T12:11:31;10.70;;;6.10;;
4839;SDS011;2434;48.486;7.964;2023-04-06T12:13:59;10.70;;;6.03;;
4839;SDS011;2434;48.486;7.964;2023-04-06T12:16:31;11.97;;;6.17;;
4839;SDS011;2434;48.486;7.964;2023-04-06T12:18:59;9.40;;;5.93;;
4839;SDS011;2434;48.486;7.964;2023-04-06T12:21:28;10.30;;;5.80;;
4839;SDS011;2434;48.486;7.964;2023-04-06T12:23:57;8.97;;;6.10;;
4839;SDS011;2434;48.486;7.964;2023-04-06T12:26:27;9.17;;;5.67;;
4839;SDS011;2434;48.486;7.964;2023-04-06T12:28:55;9.73;;;6.63;;
4839;SDS011;2434;48.486;7.964;2023-04-06T12:31:25;10.03;;;5.70;;
4839;SDS011;2434;48.486;7.964;2023-04-06T12:33:53;16.27;;;7.00;;
4839;SDS011;2434;48.486;7.964;2023-04-06T12:36:22;10.97;;;6.43;;
4839;SDS011;2434;48.486;7.964;2023-04-06T12:38:50;13.93;;;7.80;;
4839;SDS011;2434;48.486;7.964;2023-04-06T12:41:19;12.20;;;5.73;;
4839;SDS011;2434;48.486;7.964;2023-04-06T12:43:48;7.83;;;4.97;;
4839;SDS011;2434;48.486;7.964;2023-04-06T12:46:17;11.23;;;6.00;;
4839;SDS011;2434;48.486;7.964;2023-04-06T12:48:45;7.53;;;5.80;;
4839;SDS011;2434;48.486;7.964;2023-04-06T12:51:14;8.03;;;5.30;;
4839;SDS011;2434;48.486;7.964;2023-04-06T12:53:43;7.10;;;4.67;;
4839;SDS011;2434;48.486;7.964;2023-04-06T12:56:12;10.63;;;5.80;;
4839;SDS011;2434;48.486;7.964;2023-04-06T12:58:41;10.00;;;5.93;;
4839;SDS011;2434;48.486;7.964;2023-04-06T13:01:10;9.87;;;6.23;;
4839;SDS011;2434;48.486;7.964;2023-04-06T13:03:39;11.70;;;5.97;;
4839;SDS011;2434;48.486;7.964;2023-04-06T13:06:08;10.93;;;5.40;;
4839;SDS011;2434;48.486;7.964;2023-04-06T13:08:37;10.10;;;5.80;;
4839;SDS011;2434;48.486;7.964;2023-04-06T13:11:06;15.23;;;6.00;;
4839;SDS011;2434;48.486;7.964;2023-04-06T13:13:35;9.27;;;6.47;;
4839;SDS011;2434;48.486;7.964;2023-04-06T13:16:05;8.93;;;6.07;;
4839;SDS011;2434;48.486;7.964;2023-04-06T13:18:36;10.37;;;6.63;;
4839;SDS011;2434;48.486;7.964;2023-04-06T13:21:05;13.23;;;5.87;;
4839;SDS011;2434;48.486;7.964;2023-04-06T13:23:34;10.00;;;6.27;;
4839;SDS011;2434;48.486;7.964;2023-04-06T13:26:03;10.43;;;6.23;;
4839;SDS011;2434;48.486;7.964;2023-04-06T13:28:33;9.50;;;6.17;;
4839;SDS011;2434;48.486;7.964;2023-04-06T13:31:03;10.47;;;6.70;;
4839;SDS011;2434;48.486;7.964;2023-04-06T13:33:32;10.60;;;6.53;;
4839;SDS011;2434;48.486;7.964;2023-04-06T13:36:02;9.20;;;6.17;;
4839;SDS011;2434;48.486;7.964;2023-04-06T13:38:31;11.43;;;6.47;;
4839;SDS011;2434;48.486;7.964;2023-04-06T13:41:00;9.23;;;6.20;;
4839;SDS011;2434;48.486;7.964;2023-04-06T13:43:28;12.40;;;6.87;;
4839;SDS011;2434;48.486;7.964;2023-04-06T13:45:57;8.93;;;5.70;;
4839;SDS011;2434;48.486;7.964;2023-04-06T13:48:27;9.20;;;6.57;;
4839;SDS011;2434;48.486;7.964;2023-04-06T13:50:55;8.97;;;5.27;;
4839;SDS011;2434;48.486;7.964;2023-04-06T13:53:25;12.97;;;6.73;;
4839;SDS011;2434;48.486;7.964;2023-04-06T13:55:53;14.00;;;6.27;;
4839;SDS011;2434;48.486;7.964;2023-04-06T13:58:22;12.80;;;6.67;;
4839;SDS011;2434;48.486;7.964;2023-04-06T14:00:50;11.93;;;6.63;;
4839;SDS011;2434;48.486;7.964;2023-04-06T14:03:19;11.93;;;7.20;;
4839;SDS011;2434;48.486;7.964;2023-04-06T14:05:49;8.57;;;6.53;;
4839;SDS011;2434;48.486;7.964;2023-04-06T14:08:17;13.20;;;6.90;;
4839;SDS011;2434;48.486;7.964;2023-04-06T14:10:47;10.63;;;6.37;;
4839;SDS011;2434;48.486;7.964;2023-04-06T14:13:15;11.70;;;6.77;;
4839;SDS011;2434;48.486;7.964;2023-04-06T14:15:43;10.93;;;7.13;;
4839;SDS011;2434;48.486;7.964;2023-04-06T14:18:11;12.03;;;7.23;;
4839;SDS011;2434;48.486;7.964;2023-04-06T14:20:39;11.87;;;6.73;;
4839;SDS011;2434;48.486;7.964;2023-04-06T14:23:08;10.30;;;6.83;;
4839;SDS011;2434;48.486;7.964;2023-04-06T14:25:36;12.03;;;7.60;;
4839;SDS011;2434;48.486;7.964;2023-04-06T14:28:05;10.00;;;6.00;;
4839;SDS011;2434;48.486;7.964;2023-04-06T14:30:33;10.40;;;5.63;;
4839;SDS011;2434;48.486;7.964;2023-04-06T14:33:01;11.80;;;7.10;;
4839;SDS011;2434;48.486;7.964;2023-04-06T14:35:30;14.60;;;7.43;;
4839;SDS011;2434;48.486;7.964;2023-04-06T14:37:58;9.80;;;6.43;;
4839;SDS011;2434;48.486;7.964;2023-04-06T14:40:28;9.23;;;6.07;;
4839;SDS011;2434;48.486;7.964;2023-04-06T14:42:56;10.10;;;7.03;;
4839;SDS011;2434;48.486;7.964;2023-04-06T14:45:25;13.03;;;6.70;;
4839;SDS011;2434;48.486;7.964;2023-04-06T14:47:54;10.57;;;6.30;;
4839;SDS011;2434;48.486;7.964;2023-04-06T14:50:22;12.03;;;6.93;;
4839;SDS011;2434;48.486;7.964;2023-04-06T14:52:50;10.23;;;6.17;;
4839;SDS011;2434;48.486;7.964;2023-04-06T14:55:18;13.47;;;6.87;;
4839;SDS011;2434;48.486;7.964;2023-04-06T14:57:46;9.30;;;6.30;;
4839;SDS011;2434;48.486;7.964;2023-04-06T15:00:15;11.00;;;6.27;;
4839;SDS011;2434;48.486;7.964;2023-04-06T15:02:45;12.30;;;6.43;;
4839;SDS011;2434;48.486;7.964;2023-04-06T15:05:13;10.53;;;6.00;;
4839;SDS011;2434;48.486;7.964;2023-04-06T15:07:41;11.27;;;5.80;;
4839;SDS011;2434;48.486;7.964;2023-04-06T15:10:09;8.00;;;6.17;;
4839;SDS011;2434;48.486;7.964;2023-04-06T15:12:38;12.90;;;6.70;;
4839;SDS011;2434;48.486;7.964;2023-04-06T15:15:06;7.63;;;5.37;;
4839;SDS011;2434;48.486;7.964;2023-04-06T15:17:35;8.97;;;6.10;;
4839;SDS011;2434;48.486;7.964;2023-04-06T15:20:05;7.47;;;5.20;;
4839;SDS011;2434;48.486;7.964;2023-04-06T15:22:34;8.73;;;5.83;;
4839;SDS011;2434;48.486;7.964;2023-04-06T15:25:02;9.20;;;6.03;;
4839;SDS011;2434;48.486;7.964;2023-04-06T15:27:31;10.37;;;6.13;;
4839;SDS011;2434;48.486;7.964;2023-04-06T15:29:59;8.87;;;5.23;;